Time;durP1;ratioP1;P1;durP2;ratioP2;P2;SDS_P1;SDS_P2;PMS_P1;PMS_P2;Temp;Humidity;BMP_temperature;BMP_pressure;BME280_temperature;BME280_humidity;BME280_pressure;Samples;Min_cycle;Max_cycle;Signal;HPM_P1;HPM_P2
2023/04/25 00:01:28;;;;;;;4.60;2.35;;;;;;;14.47;77.85;98968.84;3157259;28;20063;-67
2023/04/25 00:03:00;;;;;;;3.28;2.30;;;;;;;14.42;78.26;98954.41;3156754;28;20049;-67
2023/04/25 00:04:33;;;;;;;4.13;2.22;;;;;;;14.42;78.35;98962.28;3156908;28;20080;-67
2023/04/25 00:06:06;;;;;;;3.15;1.92;;;;;;;14.38;78.24;98956.44;3157387;28;20048;-67
2023/04/25 00:07:38;;;;;;;7.45;2.78;;;;;;;14.37;78.56;98959.16;3154085;28;20089;-67
2023/04/25 00:09:10;;;;;;;4.38;2.17;;;;;;;14.32;78.77;98952.47;3148981;28;20123;-66
2023/04/25 00:10:42;;;;;;;4.00;2.28;;;;;;;14.31;78.83;98953.41;3157295;28;20048;-66
2023/04/25 00:12:15;;;;;;;4.40;2.70;;;;;;;14.31;78.87;98955.19;3157186;28;20058;-66
2023/04/25 00:13:49;;;;;;;3.60;2.67;;;;;;;14.28;78.91;98945.78;3153952;28;20079;-67
2023/04/25 00:15:22;;;;;;;4.28;2.45;;;;;;;14.30;79.28;98943.91;3155584;28;20063;-67
2023/04/25 00:16:54;;;;;;;;;;;;;;;14.20;78.87;98940.31;3153395;28;20521;-67
2023/04/25 00:18:28;;;;;;;3.42;1.88;;;;;;;14.18;79.21;98939.56;3157180;28;19981;-67
2023/04/25 00:20:00;;;;;;;2.40;1.95;;;;;;;14.14;79.43;98938.13;3157136;28;20071;-67
2023/04/25 00:21:31;;;;;;;3.13;1.75;;;;;;;14.15;79.45;98946.81;3157040;28;20092;-66
2023/04/25 00:23:03;;;;;;;4.10;2.15;;;;;;;14.17;79.58;98940.53;3157043;28;20068;-67
2023/04/25 00:24:35;;;;;;;3.50;1.90;;;;;;;14.18;79.34;98949.22;3157289;28;20047;-67
2023/04/25 00:26:07;;;;;;;2.60;1.70;;;;;;;14.18;79.23;98941.34;3156844;28;20101;-66
2023/04/25 00:27:41;;;;;;;4.03;1.83;;;;;;;14.16;79.35;98940.63;3155798;28;20056;-66
2023/04/25 00:29:13;;;;;;;3.20;1.90;;;;;;;14.18;79.45;98943.97;3156874;28;20389;-67
2023/04/25 00:30:46;;;;;;;2.97;1.75;;;;;;;14.17;79.35;98932.66;3156944;28;20052;-67
2023/04/25 00:32:17;;;;;;;4.43;2.42;;;;;;;14.14;79.18;98930.28;3156669;28;20051;-68
2023/04/25 00:33:49;;;;;;;8.00;3.00;;;;;;;14.10;79.56;98920.97;3156967;28;20509;-67
2023/04/25 00:35:21;;;;;;;3.10;2.30;;;;;;;14.13;79.27;98930.38;3151997;28;20056;-66
2023/04/25 00:36:53;;;;;;;3.17;2.03;;;;;;;14.10;79.29;98918.34;3150095;28;20054;-66
2023/04/25 00:38:24;;;;;;;4.97;1.90;;;;;;;14.15;79.42;98924.09;3157021;28;20044;-66
2023/04/25 00:39:57;;;;;;;4.57;2.08;;;;;;;14.13;79.54;98914.66;3148991;28;20048;-66
2023/04/25 00:41:30;;;;;;;2.97;1.90;;;;;;;14.15;79.45;98918.03;3156578;28;20427;-67
2023/04/25 00:43:01;;;;;;;3.38;2.30;;;;;;;14.13;79.45;98925.97;3156873;28;20055;-66
2023/04/25 00:44:33;;;;;;;3.95;2.40;;;;;;;14.14;79.26;98927.66;3156580;28;20055;-67
2023/04/25 00:46:06;;;;;;;7.95;3.17;;;;;;;14.14;79.49;98922.44;3156983;28;20079;-67
2023/04/25 00:47:38;;;;;;;4.75;2.33;;;;;;;14.13;79.40;98925.13;3144589;28;20045;-66
2023/04/25 00:49:15;;;;;;;3.67;2.60;;;;;;;14.12;79.18;98932.16;3157180;28;20055;-67
2023/04/25 00:50:52;;;;;;;7.85;2.53;;;;;;;14.15;79.62;98925.88;3155048;28;20058;-67
2023/04/25 00:52:24;;;;;;;3.58;2.22;;;;;;;14.15;79.48;98928.50;3144127;28;20386;-67
2023/04/25 00:53:56;;;;;;;4.75;2.80;;;;;;;14.15;79.41;98925.88;3151903;28;20063;-66
2023/04/25 00:55:28;;;;;;;8.32;3.03;;;;;;;13.74;79.45;98862.53;3156895;28;20367;-67
2023/04/25 00:57:01;;;;;;;4.38;2.72;;;;;;;14.17;79.11;98937.03;3155632;28;20436;-67
2023/04/25 00:58:32;;;;;;;5.13;2.90;;;;;;;14.18;79.43;98934.34;3156793;28;20150;-67
2023/04/25 01:00:06;;;;;;;6.15;2.70;;;;;;;14.19;79.40;98936.00;3156769;28;20056;-67
2023/04/25 01:01:40;;;;;;;4.43;2.50;;;;;;;14.22;79.74;98932.31;3156661;28;20461;-67
2023/04/25 01:03:12;;;;;;;3.70;2.50;;;;;;;14.18;79.81;98921.25;3156107;28;20377;-67
2023/04/25 01:04:44;;;;;;;5.47;2.63;;;;;;;14.21;79.89;98922.81;3156431;28;20113;-67
2023/04/25 01:06:16;;;;;;;3.58;2.65;;;;;;;14.21;79.53;98921.00;3149373;28;20060;-68
2023/04/25 01:07:48;;;;;;;3.60;2.38;;;;;;;14.16;79.88;98911.81;3146290;28;20071;-67
2023/04/25 01:09:19;;;;;;;4.07;2.65;;;;;;;14.17;79.91;98916.97;3150275;28;20086;-67
2023/04/25 01:10:51;;;;;;;5.45;2.33;;;;;;;14.13;80.15;98925.97;3156062;28;20186;-67
2023/04/25 01:12:24;;;;;;;3.88;2.10;;;;;;;14.18;80.02;98931.72;3156706;28;20048;-67
2023/04/25 01:13:56;;;;;;;3.65;2.33;;;;;;;14.17;80.01;98940.53;3156697;28;20541;-67
2023/04/25 01:15:28;;;;;;;4.07;2.78;;;;;;;14.15;80.42;98937.19;3156468;28;20044;-67
2023/04/25 01:17:01;;;;;;;5.07;2.63;;;;;;;14.14;80.50;98950.38;3156382;28;20351;-67
2023/04/25 01:18:32;;;;;;;3.60;2.53;;;;;;;14.08;80.27;98934.19;3156395;28;20487;-67
2023/04/25 01:20:05;;;;;;;3.42;2.33;;;;;;;14.10;80.39;98934.06;3156579;28;20052;-67
2023/04/25 01:21:38;;;;;;;;;;;;;;;14.05;79.96;98936.16;3156597;28;20588;-66
2023/04/25 01:23:11;;;;;;;3.67;2.33;;;;;;;14.06;80.17;98938.69;3156767;28;19930;-67
2023/04/25 01:24:43;;;;;;;3.37;2.27;;;;;;;14.06;80.17;98940.47;3156612;28;20495;-67
2023/04/25 01:26:15;;;;;;;3.70;2.40;;;;;;;14.01;80.35;98930.31;3159076;28;20366;-67
2023/04/25 01:27:46;;;;;;;2.60;2.22;;;;;;;13.77;80.48;98893.69;3158575;28;20047;-67
2023/04/25 01:29:19;;;;;;;4.45;2.30;;;;;;;14.00;80.35;98931.28;3158677;28;20055;-67
2023/04/25 01:30:52;;;;;;;4.13;2.50;;;;;;;14.00;80.47;98926.06;3159191;28;20048;-67
2023/04/25 01:32:25;;;;;;;3.63;2.70;;;;;;;14.00;80.29;98926.06;3158721;28;20052;-67
2023/04/25 01:33:58;;;;;;;3.78;2.70;;;;;;;14.01;80.47;98924.25;3159302;28;20051;-67
2023/04/25 01:35:29;;;;;;;3.80;2.72;;;;;;;14.03;80.60;98917.97;3152636;28;20102;-67
2023/04/25 01:37:03;;;;;;;3.58;2.60;;;;;;;14.05;80.26;98916.09;3154539;28;20437;-67
2023/04/25 01:38:35;;;;;;;3.28;2.65;;;;;;;14.06;80.22;98920.34;3158413;28;20117;-67
2023/04/25 01:40:08;;;;;;;3.45;2.25;;;;;;;14.08;80.23;98923.72;3156686;28;20055;-67
2023/04/25 01:41:39;;;;;;;3.83;2.50;;;;;;;14.07;80.27;98924.63;3158850;28;20548;-67
2023/04/25 01:43:11;;;;;;;3.00;2.42;;;;;;;14.09;80.10;98925.38;3158314;28;20059;-67
2023/04/25 01:44:43;;;;;;;3.72;2.80;;;;;;;14.05;80.14;98920.47;3158595;28;20047;-67
2023/04/25 01:46:15;;;;;;;2.83;2.30;;;;;;;14.06;80.31;98924.78;3159003;28;20067;-67
2023/04/25 01:47:48;;;;;;;4.63;2.85;;;;;;;14.07;80.44;98934.28;3158681;28;20052;-67
2023/04/25 01:49:20;;;;;;;4.95;2.97;;;;;;;14.03;80.72;98933.69;3158745;28;20059;-67
2023/04/25 01:50:52;;;;;;;3.22;2.45;;;;;;;14.02;80.37;98932.00;3158617;28;20048;-67
2023/04/25 01:52:25;;;;;;;3.55;2.70;;;;;;;14.01;80.64;98922.47;3158639;28;20052;-67
2023/04/25 01:53:58;;;;;;;4.57;3.20;;;;;;;14.02;80.59;98925.91;3158944;28;20048;-67
2023/04/25 01:55:30;;;;;;;5.65;3.60;;;;;;;13.99;80.72;98913.91;3157916;28;20055;-67
2023/04/25 01:57:01;;;;;;;5.50;4.15;;;;;;;14.00;80.62;98914.75;3158827;28;20445;-67
2023/04/25 01:58:33;;;;;;;6.82;3.95;;;;;;;13.98;80.57;98909.59;3158569;28;20113;-67
2023/04/25 02:00:08;;;;;;;11.82;4.68;;;;;;;13.99;80.93;98902.59;3158943;28;20085;-67
2023/04/25 02:01:40;;;;;;;6.55;4.57;;;;;;;13.98;80.76;98908.78;3158461;28;20051;-67
2023/04/25 02:03:11;;;;;;;6.70;4.22;;;;;;;13.95;81.10;98901.97;3158565;28;20076;-67
2023/04/25 02:04:42;;;;;;;6.72;4.10;;;;;;;13.94;80.99;98907.34;3158215;28;20052;-67
2023/04/25 02:06:14;;;;;;;7.40;4.90;;;;;;;13.91;80.82;98907.56;3159147;28;20052;-67
2023/04/25 02:07:48;;;;;;;8.75;6.03;;;;;;;13.87;80.87;98915.66;3153522;28;20052;-67
2023/04/25 02:09:20;;;;;;;7.93;5.80;;;;;;;13.83;81.20;98908.94;3155547;28;20048;-66
2023/04/25 02:10:52;;;;;;;10.38;6.18;;;;;;;13.82;81.33;98909.06;3157719;28;20127;-67
2023/04/25 02:12:26;;;;;;;10.43;5.75;;;;;;;13.80;81.14;98914.41;3155795;28;20040;-67
2023/04/25 02:13:57;;;;;;;;;;;;;;;13.72;81.27;98908.06;3158992;28;20149;-67
2023/04/25 02:15:28;;;;;;;12.13;5.72;;;;;;;13.68;81.52;98914.47;3158491;28;19924;-67
2023/04/25 02:17:00;;;;;;;7.13;5.30;;;;;;;13.67;81.79;98905.78;3158357;28;20060;-67
2023/04/25 02:18:32;;;;;;;7.85;5.05;;;;;;;13.64;81.83;98906.84;3158207;28;20051;-67
2023/04/25 02:20:06;;;;;;;8.95;4.65;;;;;;;13.63;81.94;98904.31;3158117;28;20044;-67
2023/04/25 02:21:38;;;;;;;10.10;4.97;;;;;;;13.60;82.19;98900.13;3158271;28;20052;-67
2023/04/25 02:23:11;;;;;;;6.40;4.50;;;;;;;13.59;82.21;98903.72;3158160;28;20060;-67
2023/04/25 02:24:42;;;;;;;5.97;4.50;;;;;;;13.56;82.38;98906.56;3157963;28;20108;-67
2023/04/25 02:26:14;;;;;;;8.68;5.25;;;;;;;13.57;82.76;98910.81;3158654;28;20059;-67
2023/04/25 02:27:46;;;;;;;7.45;4.90;;;;;;;13.57;82.75;98902.97;3157863;28;20154;-67
2023/04/25 02:29:17;;;;;;;6.57;4.63;;;;;;;13.37;82.57;98869.59;3158562;28;20052;-67
2023/04/25 02:30:49;;;;;;;8.68;5.25;;;;;;;13.56;82.88;98903.09;3157887;28;20529;-67
2023/04/25 02:32:21;;;;;;;5.40;4.22;;;;;;;13.57;82.78;98897.75;3153496;28;20060;-67
2023/04/25 02:33:53;;;;;;;8.27;4.78;;;;;;;13.55;82.58;98893.59;3158360;28;20044;-67
2023/04/25 02:35:24;;;;;;;11.10;5.22;;;;;;;13.60;82.79;98900.13;3153244;28;20071;-67
2023/04/25 02:36:56;;;;;;;6.00;4.32;;;;;;;13.61;82.63;98906.22;3155286;28;20186;-67
2023/04/25 02:38:29;;;;;;;5.90;4.20;;;;;;;13.59;82.65;98901.09;3157871;28;20051;-67
2023/04/25 02:40:02;;;;;;;9.98;4.35;;;;;;;13.58;82.44;98898.59;3158177;28;20052;-67
2023/04/25 02:41:34;;;;;;;7.45;4.32;;;;;;;13.55;82.85;98893.59;3158316;28;20108;-67
2023/04/25 02:43:05;;;;;;;7.13;4.55;;;;;;;13.53;82.75;98898.91;3157868;28;20048;-68
2023/04/25 02:44:37;;;;;;;5.78;4.18;;;;;;;13.56;82.63;98897.88;3158349;28;20052;-68
2023/04/25 02:46:09;;;;;;;8.07;4.68;;;;;;;13.54;82.89;98892.72;3158532;28;20121;-68
2023/04/25 02:47:41;;;;;;;10.55;5.13;;;;;;;13.43;82.83;98879.63;3158082;28;20074;-68
2023/04/25 02:49:13;;;;;;;7.75;4.32;;;;;;;13.47;82.94;98883.66;3158388;28;20044;-67
2023/04/25 02:50:45;;;;;;;8.20;5.22;;;;;;;13.47;82.72;98898.53;3157911;28;20083;-67
2023/04/25 02:52:17;;;;;;;8.02;5.03;;;;;;;13.45;83.01;98896.00;3158367;28;20553;-67
2023/04/25 02:53:49;;;;;;;6.68;4.57;;;;;;;13.43;83.02;98901.38;3157750;28;20043;-67
2023/04/25 02:55:22;;;;;;;7.53;5.43;;;;;;;13.38;82.82;98902.63;3158053;28;20064;-68
2023/04/25 02:56:54;;;;;;;6.93;5.07;;;;;;;13.37;83.26;98904.41;3157725;28;20134;-68
2023/04/25 02:58:25;;;;;;;7.43;5.38;;;;;;;13.36;83.17;98905.34;3157991;28;20306;-68
2023/04/25 02:59:57;;;;;;;8.32;5.50;;;;;;;13.35;83.40;98911.53;3157907;28;20052;-68
2023/04/25 03:01:29;;;;;;;7.60;5.45;;;;;;;13.30;83.20;98904.94;3157538;28;20071;-67
2023/04/25 03:03:01;;;;;;;7.82;4.70;;;;;;;13.32;83.12;98910.91;3157649;28;20099;-67
2023/04/25 03:04:33;;;;;;;7.78;5.10;;;;;;;13.31;83.04;98902.25;3157578;28;20124;-68
2023/04/25 03:06:05;;;;;;;9.43;5.10;;;;;;;13.29;83.27;98911.97;3157608;28;20135;-67
2023/04/25 03:07:39;;;;;;;7.57;5.30;;;;;;;13.27;83.26;98905.16;3154069;28;20271;-67
2023/04/25 03:09:12;;;;;;;11.75;7.03;;;;;;;13.31;83.38;98909.22;3149913;28;20085;-68
2023/04/25 03:10:44;;;;;;;;;;;;;;;13.22;82.93;98908.06;3150208;28;20058;-67
2023/04/25 03:12:17;;;;;;;10.93;6.43;;;;;;;13.21;83.40;98909.00;3157730;28;20260;-68
2023/04/25 03:13:48;;;;;;;13.32;7.50;;;;;;;13.19;83.19;98910.88;3157797;28;20505;-67
2023/04/25 03:15:20;;;;;;;11.32;6.88;;;;;;;13.16;83.58;98906.75;3157870;28;20546;-67
2023/04/25 03:16:52;;;;;;;11.68;6.70;;;;;;;13.18;83.63;98910.06;3157517;28;20052;-67
2023/04/25 03:18:24;;;;;;;10.55;6.63;;;;;;;13.20;83.39;98915.19;3157552;28;20477;-67
2023/04/25 03:19:56;;;;;;;11.02;6.25;;;;;;;13.20;83.52;98912.59;3157362;28;20048;-67
2023/04/25 03:21:27;;;;;;;11.80;6.25;;;;;;;13.22;83.54;98926.34;3157791;28;20044;-67
2023/04/25 03:22:59;;;;;;;10.00;6.95;;;;;;;13.23;83.64;98922.81;3157443;28;20052;-67
2023/04/25 03:24:33;;;;;;;8.70;6.00;;;;;;;13.18;83.70;98917.91;3157576;28;20413;-67
2023/04/25 03:26:04;;;;;;;8.95;5.57;;;;;;;13.24;83.26;98927.09;3157712;28;20051;-67
2023/04/25 03:27:35;;;;;;;9.48;5.97;;;;;;;13.24;83.39;98918.44;3157873;28;20131;-67
2023/04/25 03:29:07;;;;;;;8.45;5.63;;;;;;;13.21;83.59;98912.47;3157747;28;20066;-67
2023/04/25 03:30:39;;;;;;;8.10;5.43;;;;;;;13.24;83.71;98906.19;3157412;28;20048;-67
2023/04/25 03:32:11;;;;;;;8.40;5.50;;;;;;;13.25;83.65;98902.69;3157599;28;20051;-66
2023/04/25 03:33:43;;;;;;;9.20;5.55;;;;;;;13.25;83.63;98907.00;3157560;28;20048;-67
2023/04/25 03:35:13;;;;;;;8.55;5.78;;;;;;;13.26;83.58;98904.34;3156745;28;20052;-68
2023/04/25 03:36:45;;;;;;;8.70;5.47;;;;;;;13.27;83.74;98897.31;3157359;28;20737;-67
2023/04/25 03:38:17;;;;;;;12.40;5.82;;;;;;;13.27;83.52;98889.47;3157720;28;20390;-67
2023/04/25 03:39:51;;;;;;;9.68;6.10;;;;;;;13.30;83.50;98895.31;3149322;28;20048;-67
2023/04/25 03:41:22;;;;;;;;;;;;;;;13.26;83.57;98887.81;3157735;28;20055;-66
2023/04/25 03:42:53;;;;;;;8.55;5.05;;;;;;;13.27;83.75;98886.88;3157387;28;19924;-66
2023/04/25 03:44:25;;;;;;;10.30;6.28;;;;;;;13.27;83.51;98885.09;3157469;28;20062;-67
2023/04/25 03:45:57;;;;;;;11.65;5.55;;;;;;;13.26;83.67;98878.19;3145150;28;20048;-67
2023/04/25 03:47:29;;;;;;;9.50;5.38;;;;;;;13.28;83.21;98878.06;3155894;28;20113;-67
2023/04/25 03:49:00;;;;;;;8.35;5.38;;;;;;;13.29;83.56;98880.59;3156824;28;20048;-66
2023/04/25 03:50:32;;;;;;;8.80;5.57;;;;;;;13.30;83.51;98882.25;3157066;28;20104;-67
2023/04/25 03:52:04;;;;;;;8.77;5.70;;;;;;;13.29;83.40;98887.59;3157451;28;20491;-67
2023/04/25 03:53:36;;;;;;;9.20;5.85;;;;;;;13.26;83.48;98883.41;3157318;28;20488;-67
2023/04/25 03:55:10;;;;;;;6.90;4.93;;;;;;;13.23;83.44;98881.00;3156931;28;20053;-67
2023/04/25 03:56:42;;;;;;;8.85;4.95;;;;;;;13.21;83.37;98877.63;3157448;28;20052;-67
2023/04/25 03:58:14;;;;;;;9.55;5.38;;;;;;;13.21;83.31;98883.69;3157128;28;20052;-67
2023/04/25 03:59:45;;;;;;;11.43;5.75;;;;;;;13.21;82.95;98878.47;3157044;28;20051;-66
2023/04/25 04:01:17;;;;;;;10.63;5.57;;;;;;;13.21;83.24;98878.47;3157001;28;20048;-66
2023/04/25 04:02:49;;;;;;;14.48;7.05;;;;;;;13.21;82.83;98877.63;3157181;28;20040;-66
2023/04/25 04:04:21;;;;;;;11.05;6.40;;;;;;;13.21;82.98;98872.41;3157053;28;20071;-66
2023/04/25 04:05:53;;;;;;;10.07;5.88;;;;;;;13.15;83.32;98865.84;3157104;28;20077;-66
2023/04/25 04:07:24;;;;;;;10.15;5.75;;;;;;;13.17;83.25;98869.19;3155853;28;20055;-67
2023/04/25 04:08:56;;;;;;;10.07;6.47;;;;;;;13.17;83.08;98868.34;3145906;28;20147;-66
2023/04/25 04:10:30;;;;;;;10.25;6.25;;;;;;;13.19;83.39;98871.69;3157030;28;20437;-67
2023/04/25 04:12:02;;;;;;;9.13;6.53;;;;;;;13.19;83.31;98871.69;3157185;28;20083;-67
2023/04/25 04:13:34;;;;;;;11.88;6.50;;;;;;;13.21;83.37;98872.41;3157384;28;20135;-66
2023/04/25 04:15:07;;;;;;;10.05;6.35;;;;;;;13.18;83.38;98865.63;3152737;28;20052;-67
2023/04/25 04:16:39;;;;;;;11.02;7.00;;;;;;;13.17;83.38;98866.56;3156609;28;20146;-66
2023/04/25 04:18:10;;;;;;;11.27;7.35;;;;;;;13.20;82.86;98874.19;3157173;28;20044;-67
2023/04/25 04:19:42;;;;;;;12.63;6.63;;;;;;;13.20;83.14;98874.19;3156349;28;20052;-67
2023/04/25 04:21:14;;;;;;;10.15;6.38;;;;;;;13.23;82.94;98881.00;3156849;28;20056;-67
2023/04/25 04:22:46;;;;;;;14.52;7.57;;;;;;;13.09;82.94;98868.88;3156993;28;20083;-67
2023/04/25 04:24:18;;;;;;;12.32;6.93;;;;;;;13.25;83.08;98886.09;3157207;28;20394;-66
2023/04/25 04:25:52;;;;;;;11.93;7.03;;;;;;;13.26;83.59;98882.59;3144574;28;20330;-68
2023/04/25 04:27:24;;;;;;;12.45;8.05;;;;;;;13.25;83.44;98884.38;3156654;28;20082;-69
2023/04/25 04:28:56;;;;;;;12.57;7.57;;;;;;;13.21;83.40;98885.47;3157068;28;20070;-68
2023/04/25 04:30:29;;;;;;;13.95;7.70;;;;;;;13.26;83.45;98887.81;3156829;28;20132;-69
2023/04/25 04:32:03;;;;;;;12.10;7.03;;;;;;;13.29;83.76;98892.84;3156847;28;20568;-70
2023/04/25 04:33:34;;;;;;;13.27;8.85;;;;;;;13.31;83.60;98891.78;3156918;28;20051;-72
2023/04/25 04:35:08;;;;;;;11.02;7.75;;;;;;;13.33;83.66;98889.88;3151942;28;20052;-71
2023/04/25 04:36:41;;;;;;;85.82;49.00;;;;;;;13.37;83.62;98903.59;3148353;28;20112;-69
2023/04/25 04:38:15;;;;;;;38.80;20.73;;;;;;;13.40;83.97;98885.91;3157052;28;20095;-71
2023/04/25 04:39:46;;;;;;;40.60;23.52;;;;;;;13.40;83.84;98879.84;3146459;28;20056;-71
2023/04/25 04:41:20;;;;;;;23.67;14.15;;;;;;;13.46;83.29;98886.38;3146229;28;20055;-75
2023/04/25 04:42:53;;;;;;;13.80;8.40;;;;;;;13.50;83.44;98886.06;3156492;28;20048;-69
2023/04/25 04:44:26;;;;;;;12.30;7.40;;;;;;;13.52;83.10;98883.34;3154759;28;20076;-73
2023/04/25 04:45:57;;;;;;;13.43;8.85;;;;;;;13.54;83.19;98886.66;3157002;28;20048;-70
2023/04/25 04:47:32;;;;;;;19.88;11.40;;;;;;;13.55;83.06;98883.13;3145813;28;20048;-68
2023/04/25 04:49:08;;;;;;;15.15;9.63;;;;;;;13.54;83.01;98887.50;3155883;28;20574;-69
2023/04/25 04:50:40;;;;;;;14.23;9.15;;;;;;;13.60;82.68;98887.06;3156709;28;20129;-67
2023/04/25 04:52:17;;;;;;;24.98;12.55;;;;;;;13.53;82.90;98871.94;3156731;28;20494;-66
2023/04/25 04:53:49;;;;;;;12.75;8.45;;;;;;;13.63;82.69;98897.31;3156761;28;20109;-69
2023/04/25 04:55:21;;;;;;;11.00;6.95;;;;;;;13.63;82.40;98897.31;3156884;28;20056;-69
2023/04/25 04:56:55;;;;;;;10.75;7.30;;;;;;;13.64;82.08;98898.16;3156637;28;20491;-70
2023/04/25 04:58:30;;;;;;;;;;;;;;;13.60;81.84;98889.69;3156862;28;20056;-70
2023/04/25 05:00:02;;;;;;;17.13;7.47;;;;;;;13.62;81.73;98894.81;3156126;28;19989;-72
2023/04/25 05:01:35;;;;;;;11.32;7.55;;;;;;;13.64;81.93;98899.00;3143893;28;20055;-67
2023/04/25 05:03:07;;;;;;;12.43;8.23;;;;;;;13.63;81.82;98893.84;3156262;28;20127;-66
2023/04/25 05:04:39;;;;;;;14.13;8.93;;;;;;;13.67;81.56;98908.41;3155802;28;20056;-69
2023/04/25 05:06:10;;;;;;;12.98;8.60;;;;;;;13.69;81.71;98905.66;3156754;28;20058;-69
2023/04/25 05:07:42;;;;;;;15.07;9.50;;;;;;;13.71;81.52;98903.78;3152461;28;20055;-69
2023/04/25 05:09:14;;;;;;;13.98;8.95;;;;;;;13.74;81.65;98906.19;3152760;28;20422;-67
2023/04/25 05:10:46;;;;;;;14.90;8.77;;;;;;;13.73;81.62;98902.72;3156054;28;20092;-66
2023/04/25 05:12:20;;;;;;;13.18;8.75;;;;;;;13.55;81.87;98873.50;3156966;28;20143;-69
2023/04/25 05:13:53;;;;;;;12.13;8.20;;;;;;;13.76;81.82;98899.06;3150394;28;20044;-66
2023/04/25 05:15:25;;;;;;;11.90;8.35;;;;;;;13.75;81.81;98897.38;3156680;28;20044;-66
2023/04/25 05:16:58;;;;;;;10.50;7.13;;;;;;;13.77;81.72;98895.47;3156579;28;20052;-66
2023/04/25 05:18:29;;;;;;;11.68;7.53;;;;;;;13.80;81.71;98892.63;3156381;28;20121;-67
2023/04/25 05:20:01;;;;;;;13.38;8.02;;;;;;;13.79;81.72;98888.38;3156886;28;20059;-67
2023/04/25 05:21:34;;;;;;;14.13;8.20;;;;;;;13.81;81.50;98886.44;3156266;28;20055;-68
2023/04/25 05:23:06;;;;;;;12.60;8.20;;;;;;;13.83;81.41;98893.25;3153188;28;20110;-67
2023/04/25 05:24:38;;;;;;;15.90;8.40;;;;;;;13.85;81.47;98899.22;3146651;28;20049;-68
2023/04/25 05:26:13;;;;;;;14.73;8.15;;;;;;;13.87;81.72;98893.84;3156609;28;20101;-68
2023/04/25 05:27:47;;;;;;;12.95;8.40;;;;;;;13.88;81.69;98896.38;3156343;28;20097;-69
2023/04/25 05:29:19;;;;;;;13.38;7.97;;;;;;;13.89;81.48;98892.78;3156643;28;20112;-69
2023/04/25 05:30:51;;;;;;;14.80;8.45;;;;;;;13.90;81.44;98898.84;3156725;28;20044;-66
2023/04/25 05:32:23;;;;;;;19.25;8.82;;;;;;;13.91;81.34;98891.88;3156933;28;20101;-73
2023/04/25 05:33:55;;;;;;;11.95;7.72;;;;;;;13.94;81.49;98894.25;3156672;28;20406;-72
2023/04/25 05:35:27;;;;;;;14.98;8.48;;;;;;;13.94;81.78;98895.09;3156060;28;20143;-74
2023/04/25 05:36:59;;;;;;;13.18;7.88;;;;;;;14.02;81.75;98895.38;3156282;28;20102;-73
2023/04/25 05:38:32;;;;;;;10.98;7.72;;;;;;;14.06;81.73;98895.97;3156306;28;20458;-73
2023/04/25 05:40:06;;;;;;;12.23;7.73;;;;;;;14.05;81.36;98892.53;3156312;28;20089;-74
2023/04/25 05:41:39;;;;;;;11.32;7.07;;;;;;;14.11;81.45;98893.84;3156158;28;20313;-72
2023/04/25 05:43:12;;;;;;;11.18;7.43;;;;;;;14.18;81.25;98902.09;3156557;28;20048;-76
2023/04/25 05:44:44;;;;;;;;;;;;;;;14.18;81.14;98895.06;3156851;28;20593;-73
2023/04/25 05:46:17;;;;;;;12.38;7.40;;;;;;;14.21;80.95;98886.97;3156595;28;19950;-72
2023/04/25 05:47:49;;;;;;;10.63;7.50;;;;;;;14.15;80.76;98871.72;3156118;28;20436;-77
2023/04/25 05:49:22;;;;;;;13.45;7.93;;;;;;;14.34;80.74;98892.97;3156154;28;20080;-77
2023/04/25 05:50:54;;;;;;;11.32;7.93;;;;;;;14.56;80.82;98896.63;3156425;28;20048;-75
2023/04/25 05:52:26;;;;;;;12.93;7.32;;;;;;;15.01;80.85;98897.47;3146981;28;20056;-69
2023/04/25 05:53:58;;;;;;;14.15;8.00;;;;;;;15.54;79.87;98888.94;3155325;28;20048;-70
2023/04/25 05:55:30;;;;;;;11.65;7.47;;;;;;;15.95;78.43;98897.09;3156565;28;20059;-67
2023/04/25 05:57:03;;;;;;;16.65;8.05;;;;;;;16.31;77.38;98903.72;3156491;28;20397;-70
2023/04/25 05:58:36;;;;;;;18.25;8.77;;;;;;;16.68;75.78;98895.38;3145329;28;20045;-67
2023/04/25 06:00:10;;;;;;;;;;;;;;;16.82;74.81;98892.44;3147781;28;20048;-66
2023/04/25 06:01:42;;;;;;;15.00;9.13;;;;;;;16.86;74.19;98893.00;3150822;28;19997;-66
2023/04/25 06:03:15;;;;;;;12.55;7.32;;;;;;;17.21;73.29;98889.97;3148025;28;20439;-66
2023/04/25 06:04:47;;;;;;;13.07;7.85;;;;;;;17.65;72.10;98885.22;3149647;28;20073;-68
2023/04/25 06:06:20;;;;;;;10.07;6.05;;;;;;;18.14;70.39;98886.13;3155937;28;20489;-73
2023/04/25 06:07:52;;;;;;;10.80;6.40;;;;;;;18.54;68.55;98893.81;3154480;28;20048;-69
2023/04/25 06:09:24;;;;;;;7.53;5.00;;;;;;;18.95;66.92;98885.69;3155910;28;20129;-71
2023/04/25 06:10:56;;;;;;;4.43;3.08;;;;;;;19.29;65.09;98889.41;3149914;28;20477;-71
2023/04/25 06:12:32;;;;;;;6.53;4.18;;;;;;;19.54;63.29;98887.03;3147304;28;20086;-74
2023/04/25 06:14:07;;;;;;;7.72;4.85;;;;;;;19.75;62.14;98890.25;3158160;28;20048;-75
2023/04/25 06:15:39;;;;;;;8.10;4.88;;;;;;;19.87;60.97;98882.13;3158592;28;20056;-74
2023/04/25 06:17:11;;;;;;;5.68;4.22;;;;;;;19.84;60.56;98870.03;3158342;28;20546;-73
2023/04/25 06:18:43;;;;;;;7.90;5.03;;;;;;;19.74;59.92;98875.41;3158673;28;20557;-74
2023/04/25 06:20:15;;;;;;;7.97;4.95;;;;;;;19.66;60.27;98877.94;3158423;28;20139;-70
2023/04/25 06:21:47;;;;;;;10.18;5.95;;;;;;;19.58;60.21;98871.72;3158272;28;20201;-71
2023/04/25 06:23:19;;;;;;;7.63;5.03;;;;;;;19.47;60.25;98873.59;3158504;28;20109;-71
2023/04/25 06:24:51;;;;;;;7.70;5.10;;;;;;;19.26;60.39;98862.50;3158460;28;20083;-72
2023/04/25 06:26:23;;;;;;;9.15;5.40;;;;;;;19.32;60.71;98875.09;3158010;28;20111;-71
2023/04/25 06:27:55;;;;;;;9.38;5.38;;;;;;;19.30;60.30;98883.16;3158168;28;20044;-74
2023/04/25 06:29:29;;;;;;;9.20;5.30;;;;;;;19.28;60.44;98874.53;3158033;28;20788;-67
2023/04/25 06:31:01;;;;;;;11.10;5.45;;;;;;;19.26;60.05;98871.22;3158305;28;20377;-68
2023/04/25 06:32:34;;;;;;;8.00;5.57;;;;;;;19.25;60.00;98874.00;3157945;28;20058;-71
2023/04/25 06:34:06;;;;;;;8.55;5.68;;;;;;;19.27;60.11;98874.69;3158353;28;20101;-78
2023/04/25 06:38:01;;;;;;;7.82;5.47;;;;;;;19.32;59.78;98857.44;3123977;28;20164;-70
2023/04/25 06:42:25;;;;;;;7.65;5.22;;;;;;;19.36;59.18;98865.88;3155365;28;20044;-72
2023/04/25 06:44:36;;;;;;;13.98;5.90;;;;;;;19.40;59.34;98856.69;3155410;28;20106;-76
2023/04/25 06:46:09;;;;;;;13.65;5.65;;;;;;;19.49;58.81;98852.31;3157529;28;20124;-75
2023/04/25 06:47:44;;;;;;;9.57;5.65;;;;;;;19.61;59.34;98863.50;3157818;28;20135;-67
2023/04/25 06:49:16;;;;;;;14.27;6.60;;;;;;;19.72;58.94;98860.69;3157632;28;20052;-68
2023/04/25 06:50:48;;;;;;;12.68;5.38;;;;;;;19.91;58.51;98867.66;3157825;28;20060;-67
2023/04/25 06:52:20;;;;;;;12.00;4.72;;;;;;;19.99;57.87;98860.63;3152483;28;20055;-72
2023/04/25 06:53:52;;;;;;;11.38;4.70;;;;;;;19.92;57.16;98848.97;3155712;28;20083;-77
2023/04/25 06:55:24;;;;;;;14.30;5.68;;;;;;;20.01;56.24;98865.72;3156756;28;20052;-68
2023/04/25 06:56:56;;;;;;;9.35;5.60;;;;;;;20.02;56.48;98853.34;3150156;28;20112;-76
2023/04/25 06:58:29;;;;;;;9.17;4.83;;;;;;;20.21;56.41;98877.81;3158129;28;20079;-67
2023/04/25 07:00:01;;;;;;;8.70;5.38;;;;;;;20.36;55.95;98866.66;3154357;28;20448;-68
2023/04/25 07:01:38;;;;;;;8.38;5.22;;;;;;;20.49;55.61;98866.25;3145093;28;20469;-67
2023/04/25 07:03:10;;;;;;;14.77;4.97;;;;;;;20.65;55.05;98864.59;3155510;28;20055;-68
2023/04/25 07:04:42;;;;;;;9.82;5.07;;;;;;;20.80;53.12;98870.13;3157627;28;20062;-68
2023/04/25 07:06:14;;;;;;;6.72;4.55;;;;;;;20.75;53.05;98861.00;3157874;28;20095;-69
2023/04/25 07:07:46;;;;;;;9.05;4.60;;;;;;;20.80;53.58;98869.28;3153239;28;20052;-74
2023/04/25 07:09:19;;;;;;;13.55;4.93;;;;;;;20.86;53.58;98858.09;3152069;28;20060;-74
2023/04/25 07:10:51;;;;;;;9.35;5.20;;;;;;;20.99;53.28;98855.81;3157710;28;20104;-74
2023/04/25 07:12:23;;;;;;;7.38;5.15;;;;;;;21.18;53.04;98862.69;3157936;28;20454;-68
2023/04/25 07:13:55;;;;;;;12.63;4.90;;;;;;;21.25;52.75;98844.34;3157685;28;20109;-69
2023/04/25 07:15:27;;;;;;;12.45;4.30;;;;;;;21.52;52.39;98860.00;3152099;28;20060;-65
2023/04/25 07:17:01;;;;;;;18.20;12.53;;;;;;;21.67;52.20;98856.72;3149500;28;20092;-66
2023/04/25 07:18:33;;;;;;;12.95;6.35;;;;;;;21.79;51.53;98860.69;3151323;28;20320;-72
2023/04/25 07:20:07;;;;;;;10.93;5.65;;;;;;;21.73;51.02;98859.53;3149400;28;20114;-76